Aeroboteco Virtual Airlines! Uma nuvem a frente.



 INFORMAÇÕES METEOROLÓGICAS
METAR FOR LEPP
ADDS - METARS form results

(1744 UTC 05 June 2020)
Data provider http://aviationweather.gov/metar/data/
 
METAR text: LEPP 051730Z AUTO 01008KT 330V050 CAVOK 19/12 Q1012
Conditions at: LEPP (PAMPLONA/NOAIN , ES) observed 1730 UTC 05 June 2020
Temperature: 19.0°C (66°F)
Dewpoint: 12.0°C (54°F) [RH = 64%]
Pressure (altimeter): 29.88 inches Hg (1012.0 mb)
Winds: from the N (10 degrees) at 9 MPH (8 knots; 4.1 m/s)
Visibility: 6 or more miles (10+ km)
Ceiling: ceiling and visibility are OK
Clouds: unknown
Weather: no significant weather observed at this time

METAR text: LEPP 051700Z AUTO 01008KT 340V040 CAVOK 20/12 Q1012
Conditions at: LEPP (PAMPLONA/NOAIN , ES) observed 1700 UTC 05 June 2020
Temperature: 20.0°C (68°F)
Dewpoint: 12.0°C (54°F) [RH = 60%]
Pressure (altimeter): 29.88 inches Hg (1012.0 mb)
Winds: from the N (10 degrees) at 9 MPH (8 knots; 4.1 m/s)
Visibility: 6 or more miles (10+ km)
Ceiling: ceiling and visibility are OK
Clouds: unknown
Weather: no significant weather observed at this time

Forecast for: LEPP (PAMPLONA/NOAIN , ES)
Text: TAF LEPP 051400Z 0515/0615 36009KT 9999 SCT030 TX23/0614Z TN10/0605Z
Forecast period: 1500 UTC 05 June 2020 to 1500 UTC 06 June 2020
Forecast type: FROM: standard forecast or significant change
Winds: from the N (360 degrees) at 10 MPH (9 knots; 4.6 m/s)
Visibility: 6 or more miles 10+ km)
Ceiling: at least 12,000 feet AGL
Clouds: scattered clouds at 3000 feet AGL
Weather: no significant weather forecast for this period
Text: TEMPO 0612/0615 3000 RA SHRA BKN010 SCT025TCU
Forecast period: 1200 to 1500 UTC 06 June 2020
Forecast type: TEMPORARY: The following changes expected for less than half the time period
Visibility: 1.86 miles (2.99 km)
Ceiling: 1000 feet AGL
Clouds: broken clouds at 1000 feet AGL
scattered clouds at 2500 feet AGL
Weather: RA SHRA  (moderate rain, rain showers)

 MAPA DO AEROPORTO

 INFORMAÇÕES DA PISTA
Pista 15 Tamanho da pista 0 ft Largura da pista 0 ft
Elevação da pista 1468 ft Ranhura da pista 0 ft Proa da pista 0
Pista 33 Tamanho da pista 0 ft Largura da pista 0 ft
Elevação da pista 1500 ft Ranhura da pista 0 ft Proa da pista 0
Pista 16 Tamanho da pista 7241 ft Largura da pista 148 ft
Elevação da pista 1468 ft Ranhura da pista 0 ft Proa da pista 152
Pista 34 Tamanho da pista 7241 ft Largura da pista 148 ft
Elevação da pista 1504 ft Ranhura da pista 984 ft Proa da pista 332

 FREQUÊNCIAS DO AEROPORTO
Tipo APP Nome APP Frequência 118.2 MHZ
Tipo GND Nome GND Frequência 121.7 MHZ
Tipo TWR Nome TWR Frequência 118.2 MHZ

 AUXÍLIOS DE NAVEGAÇÃO PRÓXIMOS AO AEROPORTO
Tipo NDB Nome Pamplona Frequência 422 KHZ
Tipo VOR-DME Nome Pamplona Frequência 113550 KHZ
Tipo VOR-DME Nome Pamplona Frequência 112300 KHZ